sensor_id;sensor_type;location;lat;lon;timestamp;temperature;humidity
2663;DHT22;49701;48.072;7.800;2023-07-13T00:00:53;21.60;99.90
2663;DHT22;49701;48.072;7.800;2023-07-13T00:03:19;21.60;99.90
2663;DHT22;49701;48.072;7.800;2023-07-13T00:05:45;21.60;99.90
2663;DHT22;49701;48.072;7.800;2023-07-13T00:08:10;21.60;99.90
2663;DHT22;49701;48.072;7.800;2023-07-13T00:10:40;21.60;99.90
2663;DHT22;49701;48.072;7.800;2023-07-13T00:13:07;21.60;99.90
2663;DHT22;49701;48.072;7.800;2023-07-13T00:15:32;21.60;99.90
2663;DHT22;49701;48.072;7.800;2023-07-13T00:17:58;21.60;99.90
2663;DHT22;49701;48.072;7.800;2023-07-13T00:20:26;21.60;99.90
2663;DHT22;49701;48.072;7.800;2023-07-13T00:22:53;21.70;99.90
2663;DHT22;49701;48.072;7.800;2023-07-13T00:25:22;21.60;99.90
2663;DHT22;49701;48.072;7.800;2023-07-13T00:27:51;21.70;99.90
2663;DHT22;49701;48.072;7.800;2023-07-13T00:30:17;21.70;99.90
2663;DHT22;49701;48.072;7.800;2023-07-13T00:32:43;21.70;99.90
2663;DHT22;49701;48.072;7.800;2023-07-13T00:35:09;21.70;99.90
2663;DHT22;49701;48.072;7.800;2023-07-13T00:37:35;21.70;99.90
2663;DHT22;49701;48.072;7.800;2023-07-13T00:40:03;21.60;99.90
2663;DHT22;49701;48.072;7.800;2023-07-13T00:42:29;21.60;99.90
2663;DHT22;49701;48.072;7.800;2023-07-13T00:47:46;21.50;99.90
2663;DHT22;49701;48.072;7.800;2023-07-13T00:50:14;21.50;99.90
2663;DHT22;49701;48.072;7.800;2023-07-13T00:52:44;21.40;99.90
2663;DHT22;49701;48.072;7.800;2023-07-13T00:55:11;21.40;99.90
2663;DHT22;49701;48.072;7.800;2023-07-13T00:57:38;21.40;99.90
2663;DHT22;49701;48.072;7.800;2023-07-13T01:00:07;21.40;99.90
2663;DHT22;49701;48.072;7.800;2023-07-13T01:02:38;21.30;99.90
2663;DHT22;49701;48.072;7.800;2023-07-13T01:05:12;21.30;99.90
2663;DHT22;49701;48.072;7.800;2023-07-13T01:07:39;21.30;99.90
2663;DHT22;49701;48.072;7.800;2023-07-13T01:10:07;21.30;99.90
2663;DHT22;49701;48.072;7.800;2023-07-13T01:12:33;21.30;99.90
2663;DHT22;49701;48.072;7.800;2023-07-13T01:14:59;21.30;99.90
2663;DHT22;49701;48.072;7.800;2023-07-13T01:17:26;21.30;99.90
2663;DHT22;49701;48.072;7.800;2023-07-13T01:19:52;21.20;99.90
2663;DHT22;49701;48.072;7.800;2023-07-13T01:22:19;21.20;99.90
2663;DHT22;49701;48.072;7.800;2023-07-13T01:24:48;21.10;99.90
2663;DHT22;49701;48.072;7.800;2023-07-13T01:27:19;21.10;99.90
2663;DHT22;49701;48.072;7.800;2023-07-13T01:29:46;21.10;99.90
2663;DHT22;49701;48.072;7.800;2023-07-13T01:32:17;21.10;99.90
2663;DHT22;49701;48.072;7.800;2023-07-13T01:34:48;21.00;99.90
2663;DHT22;49701;48.072;7.800;2023-07-13T01:37:17;21.00;99.90
2663;DHT22;49701;48.072;7.800;2023-07-13T01:39:42;20.90;99.90
2663;DHT22;49701;48.072;7.800;2023-07-13T01:42:08;20.90;99.90
2663;DHT22;49701;48.072;7.800;2023-07-13T01:44:34;20.90;99.90
2663;DHT22;49701;48.072;7.800;2023-07-13T01:47:01;20.90;99.90
2663;DHT22;49701;48.072;7.800;2023-07-13T01:49:26;20.90;99.90
2663;DHT22;49701;48.072;7.800;2023-07-13T01:51:52;20.80;99.90
2663;DHT22;49701;48.072;7.800;2023-07-13T01:54:18;20.80;99.90
2663;DHT22;49701;48.072;7.800;2023-07-13T01:56:43;20.80;99.90
2663;DHT22;49701;48.072;7.800;2023-07-13T01:59:09;20.70;99.90
2663;DHT22;49701;48.072;7.800;2023-07-13T02:01:35;20.70;99.90
2663;DHT22;49701;48.072;7.800;2023-07-13T02:04:01;20.60;99.90
2663;DHT22;49701;48.072;7.800;2023-07-13T02:06:29;20.60;99.90
2663;DHT22;49701;48.072;7.800;2023-07-13T02:08:55;20.50;99.90
2663;DHT22;49701;48.072;7.800;2023-07-13T02:11:21;20.40;99.90
2663;DHT22;49701;48.072;7.800;2023-07-13T02:13:46;20.40;99.90
2663;DHT22;49701;48.072;7.800;2023-07-13T02:16:12;20.30;99.90
2663;DHT22;49701;48.072;7.800;2023-07-13T02:18:38;20.20;99.90
2663;DHT22;49701;48.072;7.800;2023-07-13T02:21:04;20.10;99.90
2663;DHT22;49701;48.072;7.800;2023-07-13T02:23:29;20.00;99.90
2663;DHT22;49701;48.072;7.800;2023-07-13T02:25:59;19.90;99.90
2663;DHT22;49701;48.072;7.800;2023-07-13T02:28:26;19.80;99.90
2663;DHT22;49701;48.072;7.800;2023-07-13T02:30:52;19.90;99.90
2663;DHT22;49701;48.072;7.800;2023-07-13T02:33:17;19.80;99.90
2663;DHT22;49701;48.072;7.800;2023-07-13T02:35:43;19.90;99.90
2663;DHT22;49701;48.072;7.800;2023-07-13T02:38:09;19.90;99.90
2663;DHT22;49701;48.072;7.800;2023-07-13T02:40:35;20.00;99.90
2663;DHT22;49701;48.072;7.800;2023-07-13T02:43:01;20.00;99.90
2663;DHT22;49701;48.072;7.800;2023-07-13T02:45:30;20.00;99.90
2663;DHT22;49701;48.072;7.800;2023-07-13T02:47:56;20.00;99.90
2663;DHT22;49701;48.072;7.800;2023-07-13T02:50:22;20.00;99.90
2663;DHT22;49701;48.072;7.800;2023-07-13T02:52:47;20.00;99.90
2663;DHT22;49701;48.072;7.800;2023-07-13T02:55:13;20.00;99.90
2663;DHT22;49701;48.072;7.800;2023-07-13T02:57:40;20.00;99.90
2663;DHT22;49701;48.072;7.800;2023-07-13T03:00:07;20.00;99.90
2663;DHT22;49701;48.072;7.800;2023-07-13T03:02:34;19.90;99.90
2663;DHT22;49701;48.072;7.800;2023-07-13T03:05:01;19.90;99.90
2663;DHT22;49701;48.072;7.800;2023-07-13T03:07:27;19.80;99.90
2663;DHT22;49701;48.072;7.800;2023-07-13T03:09:56;19.80;99.90
2663;DHT22;49701;48.072;7.800;2023-07-13T03:12:25;19.80;99.90
2663;DHT22;49701;48.072;7.800;2023-07-13T03:14:51;19.70;99.90
2663;DHT22;49701;48.072;7.800;2023-07-13T03:17:17;19.60;99.90
2663;DHT22;49701;48.072;7.800;2023-07-13T03:19:43;19.60;99.90
2663;DHT22;49701;48.072;7.800;2023-07-13T03:22:10;19.50;99.90
2663;DHT22;49701;48.072;7.800;2023-07-13T03:24:37;19.50;99.90
2663;DHT22;49701;48.072;7.800;2023-07-13T03:27:05;19.50;99.90
2663;DHT22;49701;48.072;7.800;2023-07-13T03:29:33;19.50;99.90
2663;DHT22;49701;48.072;7.800;2023-07-13T03:31:59;19.40;99.90
2663;DHT22;49701;48.072;7.800;2023-07-13T03:34:25;19.40;99.90
2663;DHT22;49701;48.072;7.800;2023-07-13T03:36:53;19.30;99.90
2663;DHT22;49701;48.072;7.800;2023-07-13T03:39:18;19.20;99.90
2663;DHT22;49701;48.072;7.800;2023-07-13T03:41:52;19.20;99.90
2663;DHT22;49701;48.072;7.800;2023-07-13T03:44:18;19.10;99.90
2663;DHT22;49701;48.072;7.800;2023-07-13T03:46:47;19.10;99.90
2663;DHT22;49701;48.072;7.800;2023-07-13T03:49:13;19.10;99.90
2663;DHT22;49701;48.072;7.800;2023-07-13T03:51:39;19.00;99.90
2663;DHT22;49701;48.072;7.800;2023-07-13T03:54:05;18.90;99.90
2663;DHT22;49701;48.072;7.800;2023-07-13T03:56:31;18.90;99.90
2663;DHT22;49701;48.072;7.800;2023-07-13T03:58:58;18.90;99.90
2663;DHT22;49701;48.072;7.800;2023-07-13T04:01:24;18.90;99.90
2663;DHT22;49701;48.072;7.800;2023-07-13T04:03:51;18.80;99.90
2663;DHT22;49701;48.072;7.800;2023-07-13T04:06:23;18.80;99.90
2663;DHT22;49701;48.072;7.800;2023-07-13T04:08:54;18.70;99.90
2663;DHT22;49701;48.072;7.800;2023-07-13T04:11:22;18.70;99.90
2663;DHT22;49701;48.072;7.800;2023-07-13T04:13:50;18.70;99.90
2663;DHT22;49701;48.072;7.800;2023-07-13T04:16:17;18.70;99.90
2663;DHT22;49701;48.072;7.800;2023-07-13T04:18:44;18.70;99.90
2663;DHT22;49701;48.072;7.800;2023-07-13T04:21:10;18.70;99.90
2663;DHT22;49701;48.072;7.800;2023-07-13T04:23:37;18.70;99.90
2663;DHT22;49701;48.072;7.800;2023-07-13T04:26:03;18.70;99.90
2663;DHT22;49701;48.072;7.800;2023-07-13T04:28:29;18.70;99.90
2663;DHT22;49701;48.072;7.800;2023-07-13T04:30:54;18.80;99.90
2663;DHT22;49701;48.072;7.800;2023-07-13T04:33:20;18.80;99.90
2663;DHT22;49701;48.072;7.800;2023-07-13T04:35:53;18.80;99.90
2663;DHT22;49701;48.072;7.800;2023-07-13T04:38:20;18.80;99.90
2663;DHT22;49701;48.072;7.800;2023-07-13T04:40:46;18.80;99.90
2663;DHT22;49701;48.072;7.800;2023-07-13T04:43:11;18.80;99.90
2663;DHT22;49701;48.072;7.800;2023-07-13T04:45:37;18.90;99.90
2663;DHT22;49701;48.072;7.800;2023-07-13T04:48:03;18.90;99.90
2663;DHT22;49701;48.072;7.800;2023-07-13T04:50:29;18.90;99.90
2663;DHT22;49701;48.072;7.800;2023-07-13T04:52:54;18.90;99.90
2663;DHT22;49701;48.072;7.800;2023-07-13T04:55:20;19.00;99.90
2663;DHT22;49701;48.072;7.800;2023-07-13T04:57:47;19.00;99.90
2663;DHT22;49701;48.072;7.800;2023-07-13T05:00:13;19.10;99.90
2663;DHT22;49701;48.072;7.800;2023-07-13T05:02:43;19.10;99.90
2663;DHT22;49701;48.072;7.800;2023-07-13T05:05:10;19.20;99.90
2663;DHT22;49701;48.072;7.800;2023-07-13T05:07:35;19.30;99.90
2663;DHT22;49701;48.072;7.800;2023-07-13T05:10:02;19.40;99.90
2663;DHT22;49701;48.072;7.800;2023-07-13T05:12:29;19.50;99.90
2663;DHT22;49701;48.072;7.800;2023-07-13T05:14:55;19.60;99.90
2663;DHT22;49701;48.072;7.800;2023-07-13T05:17:21;19.70;99.90
2663;DHT22;49701;48.072;7.800;2023-07-13T05:19:47;19.80;99.90
2663;DHT22;49701;48.072;7.800;2023-07-13T05:22:12;19.90;99.90
2663;DHT22;49701;48.072;7.800;2023-07-13T05:24:38;20.00;99.90
2663;DHT22;49701;48.072;7.800;2023-07-13T05:27:04;20.10;99.90
2663;DHT22;49701;48.072;7.800;2023-07-13T05:29:30;20.30;99.90
2663;DHT22;49701;48.072;7.800;2023-07-13T05:31:55;20.30;99.90
2663;DHT22;49701;48.072;7.800;2023-07-13T05:34:22;20.40;99.90
2663;DHT22;49701;48.072;7.800;2023-07-13T05:36:48;20.50;99.90
2663;DHT22;49701;48.072;7.800;2023-07-13T05:39:14;20.60;99.90
2663;DHT22;49701;48.072;7.800;2023-07-13T05:41:40;20.70;99.90
2663;DHT22;49701;48.072;7.800;2023-07-13T05:44:06;20.80;99.90
2663;DHT22;49701;48.072;7.800;2023-07-13T05:46:31;20.80;99.90
2663;DHT22;49701;48.072;7.800;2023-07-13T05:48:57;20.90;99.90
2663;DHT22;49701;48.072;7.800;2023-07-13T05:51:23;21.00;99.90
2663;DHT22;49701;48.072;7.800;2023-07-13T05:53:48;21.00;99.90
2663;DHT22;49701;48.072;7.800;2023-07-13T05:56:14;21.10;99.90
2663;DHT22;49701;48.072;7.800;2023-07-13T05:58:40;21.10;99.90
2663;DHT22;49701;48.072;7.800;2023-07-13T06:01:08;21.10;99.90
2663;DHT22;49701;48.072;7.800;2023-07-13T06:03:35;21.20;99.90
2663;DHT22;49701;48.072;7.800;2023-07-13T06:06:01;21.20;99.90
2663;DHT22;49701;48.072;7.800;2023-07-13T06:08:27;21.40;99.90
2663;DHT22;49701;48.072;7.800;2023-07-13T06:10:53;21.50;99.90
2663;DHT22;49701;48.072;7.800;2023-07-13T06:13:19;21.60;99.90
2663;DHT22;49701;48.072;7.800;2023-07-13T06:15:50;21.80;99.90
2663;DHT22;49701;48.072;7.800;2023-07-13T06:18:16;21.80;99.90
2663;DHT22;49701;48.072;7.800;2023-07-13T06:20:42;21.90;99.90
2663;DHT22;49701;48.072;7.800;2023-07-13T06:23:08;21.90;99.90
2663;DHT22;49701;48.072;7.800;2023-07-13T06:25:33;22.00;99.90
2663;DHT22;49701;48.072;7.800;2023-07-13T06:27:59;22.00;99.90
2663;DHT22;49701;48.072;7.800;2023-07-13T06:30:26;22.10;99.90
2663;DHT22;49701;48.072;7.800;2023-07-13T06:32:52;22.30;99.90
2663;DHT22;49701;48.072;7.800;2023-07-13T06:35:17;22.40;99.90
2663;DHT22;49701;48.072;7.800;2023-07-13T06:37:43;22.50;99.90
2663;DHT22;49701;48.072;7.800;2023-07-13T06:40:09;22.60;99.90
2663;DHT22;49701;48.072;7.800;2023-07-13T06:42:35;22.70;99.90
2663;DHT22;49701;48.072;7.800;2023-07-13T06:45:01;22.80;99.90
2663;DHT22;49701;48.072;7.800;2023-07-13T06:47:27;22.90;99.90
2663;DHT22;49701;48.072;7.800;2023-07-13T06:49:53;23.10;99.90
2663;DHT22;49701;48.072;7.800;2023-07-13T06:52:18;23.20;99.90
2663;DHT22;49701;48.072;7.800;2023-07-13T06:54:44;23.30;99.90
2663;DHT22;49701;48.072;7.800;2023-07-13T06:57:10;23.40;99.90
2663;DHT22;49701;48.072;7.800;2023-07-13T06:59:35;23.50;99.90
2663;DHT22;49701;48.072;7.800;2023-07-13T07:02:01;23.50;99.90
2663;DHT22;49701;48.072;7.800;2023-07-13T07:04:27;23.60;99.90
2663;DHT22;49701;48.072;7.800;2023-07-13T07:06:53;23.70;99.90
2663;DHT22;49701;48.072;7.800;2023-07-13T07:09:18;23.90;99.90
2663;DHT22;49701;48.072;7.800;2023-07-13T07:11:44;24.00;99.90
2663;DHT22;49701;48.072;7.800;2023-07-13T07:14:09;24.20;99.90
2663;DHT22;49701;48.072;7.800;2023-07-13T07:16:35;24.30;99.90
2663;DHT22;49701;48.072;7.800;2023-07-13T07:19:01;24.40;99.90
2663;DHT22;49701;48.072;7.800;2023-07-13T07:21:27;24.50;99.90
2663;DHT22;49701;48.072;7.800;2023-07-13T07:23:53;24.60;99.90
2663;DHT22;49701;48.072;7.800;2023-07-13T07:26:19;24.80;99.90
2663;DHT22;49701;48.072;7.800;2023-07-13T07:28:44;24.90;99.90
2663;DHT22;49701;48.072;7.800;2023-07-13T07:31:11;25.00;99.90
2663;DHT22;49701;48.072;7.800;2023-07-13T07:33:37;25.00;99.90
2663;DHT22;49701;48.072;7.800;2023-07-13T07:36:03;25.00;99.90
2663;DHT22;49701;48.072;7.800;2023-07-13T07:38:29;24.90;99.90
2663;DHT22;49701;48.072;7.800;2023-07-13T07:40:54;25.00;99.90
2663;DHT22;49701;48.072;7.800;2023-07-13T07:43:20;25.10;99.90
2663;DHT22;49701;48.072;7.800;2023-07-13T07:45:46;25.20;99.90
2663;DHT22;49701;48.072;7.800;2023-07-13T07:48:12;25.50;99.90
2663;DHT22;49701;48.072;7.800;2023-07-13T07:50:38;25.60;99.90
2663;DHT22;49701;48.072;7.800;2023-07-13T07:53:05;25.50;99.90
2663;DHT22;49701;48.072;7.800;2023-07-13T07:55:33;25.60;99.90
2663;DHT22;49701;48.072;7.800;2023-07-13T07:58:00;25.70;99.90
2663;DHT22;49701;48.072;7.800;2023-07-13T08:00:26;25.70;99.90
2663;DHT22;49701;48.072;7.800;2023-07-13T08:03:05;25.70;99.90
2663;DHT22;49701;48.072;7.800;2023-07-13T08:05:52;25.70;99.90
2663;DHT22;49701;48.072;7.800;2023-07-13T08:08:18;25.60;99.90
2663;DHT22;49701;48.072;7.800;2023-07-13T08:10:44;25.80;99.90
2663;DHT22;49701;48.072;7.800;2023-07-13T08:13:10;25.90;99.70
2663;DHT22;49701;48.072;7.800;2023-07-13T08:15:37;26.00;99.70
2663;DHT22;49701;48.072;7.800;2023-07-13T08:18:02;26.40;99.50
2663;DHT22;49701;48.072;7.800;2023-07-13T08:20:31;26.80;99.00
2663;DHT22;49701;48.072;7.800;2023-07-13T08:22:57;27.20;98.20
2663;DHT22;49701;48.072;7.800;2023-07-13T08:25:22;27.60;97.60
2663;DHT22;49701;48.072;7.800;2023-07-13T08:27:48;27.90;97.30
2663;DHT22;49701;48.072;7.800;2023-07-13T08:30:14;28.20;97.00
2663;DHT22;49701;48.072;7.800;2023-07-13T08:32:40;28.40;96.00
2663;DHT22;49701;48.072;7.800;2023-07-13T08:35:05;28.50;95.60
2663;DHT22;49701;48.072;7.800;2023-07-13T08:37:32;28.40;95.80
2663;DHT22;49701;48.072;7.800;2023-07-13T08:39:57;28.60;95.40
2663;DHT22;49701;48.072;7.800;2023-07-13T08:42:37;28.90;95.10
2663;DHT22;49701;48.072;7.800;2023-07-13T08:48:17;29.30;94.00
2663;DHT22;49701;48.072;7.800;2023-07-13T08:50:56;29.40;93.20
2663;DHT22;49701;48.072;7.800;2023-07-13T08:53:24;29.40;93.30
2663;DHT22;49701;48.072;7.800;2023-07-13T08:55:58;29.70;93.20
2663;DHT22;49701;48.072;7.800;2023-07-13T08:58:25;30.00;92.40
2663;DHT22;49701;48.072;7.800;2023-07-13T09:00:59;29.80;91.90
2663;DHT22;49701;48.072;7.800;2023-07-13T09:03:30;29.00;92.10
2663;DHT22;49701;48.072;7.800;2023-07-13T09:06:02;28.50;92.40
2663;DHT22;49701;48.072;7.800;2023-07-13T09:08:50;28.40;91.20
2663;DHT22;49701;48.072;7.800;2023-07-13T09:17:28;28.00;88.50
2663;DHT22;49701;48.072;7.800;2023-07-13T09:20:04;27.90;89.70
2663;DHT22;49701;48.072;7.800;2023-07-13T09:22:36;28.20;89.90
2663;DHT22;49701;48.072;7.800;2023-07-13T09:25:29;28.20;89.70
2663;DHT22;49701;48.072;7.800;2023-07-13T09:28:20;28.30;90.40
2663;DHT22;49701;48.072;7.800;2023-07-13T09:30:51;28.80;90.20
2663;DHT22;49701;48.072;7.800;2023-07-13T09:33:19;29.30;89.70
2663;DHT22;49701;48.072;7.800;2023-07-13T09:35:45;29.50;89.90
2663;DHT22;49701;48.072;7.800;2023-07-13T09:38:14;29.80;88.80
2663;DHT22;49701;48.072;7.800;2023-07-13T09:41:01;30.00;85.20
2663;DHT22;49701;48.072;7.800;2023-07-13T09:43:28;30.10;83.30
2663;DHT22;49701;48.072;7.800;2023-07-13T09:45:55;30.20;83.60
2663;DHT22;49701;48.072;7.800;2023-07-13T09:48:21;30.40;83.30
2663;DHT22;49701;48.072;7.800;2023-07-13T09:50:47;30.00;82.60
2663;DHT22;49701;48.072;7.800;2023-07-13T09:53:18;29.80;82.50
2663;DHT22;49701;48.072;7.800;2023-07-13T09:55:46;29.70;83.10
2663;DHT22;49701;48.072;7.800;2023-07-13T09:58:20;30.00;82.30
2663;DHT22;49701;48.072;7.800;2023-07-13T10:00:59;30.60;81.50
2663;DHT22;49701;48.072;7.800;2023-07-13T10:03:34;31.00;79.60
2663;DHT22;49701;48.072;7.800;2023-07-13T10:06:15;30.90;80.10
2663;DHT22;49701;48.072;7.800;2023-07-13T10:08:42;30.60;80.50
2663;DHT22;49701;48.072;7.800;2023-07-13T10:11:22;29.90;81.30
2663;DHT22;49701;48.072;7.800;2023-07-13T10:13:56;29.70;82.10
2663;DHT22;49701;48.072;7.800;2023-07-13T10:16:25;29.70;82.40
2663;DHT22;49701;48.072;7.800;2023-07-13T10:19:13;29.80;82.10
2663;DHT22;49701;48.072;7.800;2023-07-13T10:21:57;30.10;82.40
2663;DHT22;49701;48.072;7.800;2023-07-13T10:24:32;30.30;82.30
2663;DHT22;49701;48.072;7.800;2023-07-13T10:29:35;30.60;82.00
2663;DHT22;49701;48.072;7.800;2023-07-13T10:32:02;30.40;82.30
2663;DHT22;49701;48.072;7.800;2023-07-13T10:34:28;30.20;82.60
2663;DHT22;49701;48.072;7.800;2023-07-13T10:36:54;30.30;81.40
2663;DHT22;49701;48.072;7.800;2023-07-13T10:39:26;30.80;80.30
2663;DHT22;49701;48.072;7.800;2023-07-13T10:41:55;31.30;78.70
2663;DHT22;49701;48.072;7.800;2023-07-13T10:44:29;31.80;75.40
2663;DHT22;49701;48.072;7.800;2023-07-13T10:47:01;31.60;73.60
2663;DHT22;49701;48.072;7.800;2023-07-13T10:49:30;31.60;73.30
2663;DHT22;49701;48.072;7.800;2023-07-13T10:51:56;31.60;72.40
2663;DHT22;49701;48.072;7.800;2023-07-13T10:54:34;31.30;73.00
2663;DHT22;49701;48.072;7.800;2023-07-13T10:57:20;31.00;73.10
2663;DHT22;49701;48.072;7.800;2023-07-13T10:59:49;31.40;73.10
2663;DHT22;49701;48.072;7.800;2023-07-13T11:02:35;31.80;73.60
2663;DHT22;49701;48.072;7.800;2023-07-13T11:05:34;32.40;73.20
2663;DHT22;49701;48.072;7.800;2023-07-13T11:08:32;32.80;72.70
2663;DHT22;49701;48.072;7.800;2023-07-13T11:10:58;33.20;70.00
2663;DHT22;49701;48.072;7.800;2023-07-13T11:18:48;31.90;69.40
2663;DHT22;49701;48.072;7.800;2023-07-13T11:21:22;32.00;69.60
2663;DHT22;49701;48.072;7.800;2023-07-13T11:23:54;32.40;68.80
2663;DHT22;49701;48.072;7.800;2023-07-13T11:31:55;33.10;67.50
2663;DHT22;49701;48.072;7.800;2023-07-13T11:34:42;33.20;66.80
2663;DHT22;49701;48.072;7.800;2023-07-13T11:37:12;33.10;66.60
2663;DHT22;49701;48.072;7.800;2023-07-13T11:39:42;32.60;67.20
2663;DHT22;49701;48.072;7.800;2023-07-13T11:42:13;32.30;68.40
2663;DHT22;49701;48.072;7.800;2023-07-13T11:44:44;32.00;68.00
2663;DHT22;49701;48.072;7.800;2023-07-13T11:47:16;32.10;66.70
2663;DHT22;49701;48.072;7.800;2023-07-13T11:49:45;32.30;66.10
2663;DHT22;49701;48.072;7.800;2023-07-13T11:52:17;31.90;67.20
2663;DHT22;49701;48.072;7.800;2023-07-13T11:54:51;31.60;67.40
2663;DHT22;49701;48.072;7.800;2023-07-13T11:57:28;31.30;68.40
2663;DHT22;49701;48.072;7.800;2023-07-13T11:59:55;31.90;67.50
2663;DHT22;49701;48.072;7.800;2023-07-13T12:02:34;32.60;67.40
2663;DHT22;49701;48.072;7.800;2023-07-13T12:05:04;33.30;66.90
2663;DHT22;49701;48.072;7.800;2023-07-13T12:07:31;33.40;67.00
2663;DHT22;49701;48.072;7.800;2023-07-13T12:10:18;33.10;67.50
2663;DHT22;49701;48.072;7.800;2023-07-13T12:13:05;32.80;67.40
2663;DHT22;49701;48.072;7.800;2023-07-13T12:15:40;32.50;68.10
2663;DHT22;49701;48.072;7.800;2023-07-13T12:20:40;32.00;69.50
2663;DHT22;49701;48.072;7.800;2023-07-13T12:23:28;31.80;68.80
2663;DHT22;49701;48.072;7.800;2023-07-13T12:25:54;31.60;69.90
2663;DHT22;49701;48.072;7.800;2023-07-13T12:28:54;31.70;69.80
2663;DHT22;49701;48.072;7.800;2023-07-13T12:36:53;30.50;69.80
2663;DHT22;49701;48.072;7.800;2023-07-13T12:42:31;29.70;73.40
2663;DHT22;49701;48.072;7.800;2023-07-13T12:45:25;29.70;73.50
2663;DHT22;49701;48.072;7.800;2023-07-13T12:47:55;29.80;73.60
2663;DHT22;49701;48.072;7.800;2023-07-13T12:50:30;30.10;72.70
2663;DHT22;49701;48.072;7.800;2023-07-13T12:53:01;30.10;72.50
2663;DHT22;49701;48.072;7.800;2023-07-13T12:55:29;30.40;72.70
2663;DHT22;49701;48.072;7.800;2023-07-13T12:57:59;31.30;70.40
2663;DHT22;49701;48.072;7.800;2023-07-13T13:00:31;32.30;68.90
2663;DHT22;49701;48.072;7.800;2023-07-13T13:05:49;33.40;66.20
2663;DHT22;49701;48.072;7.800;2023-07-13T13:08:21;33.20;65.50
2663;DHT22;49701;48.072;7.800;2023-07-13T13:10:47;32.70;65.70
2663;DHT22;49701;48.072;7.800;2023-07-13T13:13:12;32.70;65.30
2663;DHT22;49701;48.072;7.800;2023-07-13T13:15:39;32.90;63.30
2663;DHT22;49701;48.072;7.800;2023-07-13T13:18:18;33.40;62.00
2663;DHT22;49701;48.072;7.800;2023-07-13T13:20:44;34.10;60.70
2663;DHT22;49701;48.072;7.800;2023-07-13T13:23:15;34.00;61.10
2663;DHT22;49701;48.072;7.800;2023-07-13T13:25:44;33.80;62.20
2663;DHT22;49701;48.072;7.800;2023-07-13T13:28:19;33.70;62.80
2663;DHT22;49701;48.072;7.800;2023-07-13T13:30:48;33.50;62.90
2663;DHT22;49701;48.072;7.800;2023-07-13T13:33:17;33.00;63.80
2663;DHT22;49701;48.072;7.800;2023-07-13T13:35:43;32.60;64.10
2663;DHT22;49701;48.072;7.800;2023-07-13T13:38:22;32.30;66.40
2663;DHT22;49701;48.072;7.800;2023-07-13T13:40:49;31.80;65.70
2663;DHT22;49701;48.072;7.800;2023-07-13T13:43:16;31.10;67.10
2663;DHT22;49701;48.072;7.800;2023-07-13T13:45:43;30.80;68.50
2663;DHT22;49701;48.072;7.800;2023-07-13T13:48:17;30.60;69.20
2663;DHT22;49701;48.072;7.800;2023-07-13T13:50:43;30.50;69.00
2663;DHT22;49701;48.072;7.800;2023-07-13T13:53:11;30.20;70.00
2663;DHT22;49701;48.072;7.800;2023-07-13T13:55:38;30.20;71.50
2663;DHT22;49701;48.072;7.800;2023-07-13T13:58:04;30.10;72.50
2663;DHT22;49701;48.072;7.800;2023-07-13T14:00:30;30.00;72.60
2663;DHT22;49701;48.072;7.800;2023-07-13T14:02:56;29.90;72.30
2663;DHT22;49701;48.072;7.800;2023-07-13T14:05:25;29.70;72.50
2663;DHT22;49701;48.072;7.800;2023-07-13T14:07:54;29.70;73.00
2663;DHT22;49701;48.072;7.800;2023-07-13T14:10:20;29.70;73.20
2663;DHT22;49701;48.072;7.800;2023-07-13T14:12:48;29.70;73.30
2663;DHT22;49701;48.072;7.800;2023-07-13T14:15:27;29.80;73.20
2663;DHT22;49701;48.072;7.800;2023-07-13T14:17:53;29.80;73.50
2663;DHT22;49701;48.072;7.800;2023-07-13T14:20:21;29.90;74.70
2663;DHT22;49701;48.072;7.800;2023-07-13T14:22:49;30.00;74.10
2663;DHT22;49701;48.072;7.800;2023-07-13T14:25:16;30.10;73.90
2663;DHT22;49701;48.072;7.800;2023-07-13T14:27:44;30.50;72.60
2663;DHT22;49701;48.072;7.800;2023-07-13T14:30:14;31.00;71.60
2663;DHT22;49701;48.072;7.800;2023-07-13T14:32:40;31.50;71.30
2663;DHT22;49701;48.072;7.800;2023-07-13T14:35:10;31.60;70.60
2663;DHT22;49701;48.072;7.800;2023-07-13T14:37:37;31.50;69.70
2663;DHT22;49701;48.072;7.800;2023-07-13T14:40:11;31.50;69.60
2663;DHT22;49701;48.072;7.800;2023-07-13T14:42:37;31.60;69.10
2663;DHT22;49701;48.072;7.800;2023-07-13T14:45:03;31.90;68.60
2663;DHT22;49701;48.072;7.800;2023-07-13T14:47:29;31.90;68.50
2663;DHT22;49701;48.072;7.800;2023-07-13T14:49:55;31.80;69.10
2663;DHT22;49701;48.072;7.800;2023-07-13T14:52:22;31.70;70.20
2663;DHT22;49701;48.072;7.800;2023-07-13T14:54:49;31.50;70.70
2663;DHT22;49701;48.072;7.800;2023-07-13T14:57:17;31.30;69.90
2663;DHT22;49701;48.072;7.800;2023-07-13T14:59:44;31.00;69.90
2663;DHT22;49701;48.072;7.800;2023-07-13T15:02:30;30.90;70.10
2663;DHT22;49701;48.072;7.800;2023-07-13T15:04:57;30.90;70.60
2663;DHT22;49701;48.072;7.800;2023-07-13T15:07:24;30.90;70.50
2663;DHT22;49701;48.072;7.800;2023-07-13T15:09:50;31.00;70.10
2663;DHT22;49701;48.072;7.800;2023-07-13T15:12:17;31.00;69.60
2663;DHT22;49701;48.072;7.800;2023-07-13T15:14:43;30.80;69.40
2663;DHT22;49701;48.072;7.800;2023-07-13T15:17:30;31.00;69.30
2663;DHT22;49701;48.072;7.800;2023-07-13T15:19:58;31.20;69.10
2663;DHT22;49701;48.072;7.800;2023-07-13T15:22:24;31.20;67.60
2663;DHT22;49701;48.072;7.800;2023-07-13T15:24:50;31.00;68.40
2663;DHT22;49701;48.072;7.800;2023-07-13T15:27:15;30.70;69.50
2663;DHT22;49701;48.072;7.800;2023-07-13T15:29:41;30.40;68.80
2663;DHT22;49701;48.072;7.800;2023-07-13T15:32:14;30.10;70.10
2663;DHT22;49701;48.072;7.800;2023-07-13T15:34:40;29.70;70.60
2663;DHT22;49701;48.072;7.800;2023-07-13T15:37:15;29.50;71.40
2663;DHT22;49701;48.072;7.800;2023-07-13T15:39:41;29.20;70.60
2663;DHT22;49701;48.072;7.800;2023-07-13T15:42:15;29.00;71.80
2663;DHT22;49701;48.072;7.800;2023-07-13T15:44:41;28.90;72.40
2663;DHT22;49701;48.072;7.800;2023-07-13T15:47:11;28.80;72.90
2663;DHT22;49701;48.072;7.800;2023-07-13T15:49:38;28.80;72.00
2663;DHT22;49701;48.072;7.800;2023-07-13T15:52:05;28.70;71.70
2663;DHT22;49701;48.072;7.800;2023-07-13T15:54:31;28.70;72.00
2663;DHT22;49701;48.072;7.800;2023-07-13T15:57:00;28.60;71.30
2663;DHT22;49701;48.072;7.800;2023-07-13T15:59:26;28.50;70.40
2663;DHT22;49701;48.072;7.800;2023-07-13T16:01:52;28.40;70.90
2663;DHT22;49701;48.072;7.800;2023-07-13T16:04:17;28.30;72.10
2663;DHT22;49701;48.072;7.800;2023-07-13T16:06:45;28.30;72.00
2663;DHT22;49701;48.072;7.800;2023-07-13T16:09:22;28.20;72.80
2663;DHT22;49701;48.072;7.800;2023-07-13T16:11:49;28.20;73.00
2663;DHT22;49701;48.072;7.800;2023-07-13T16:14:16;28.20;72.50
2663;DHT22;49701;48.072;7.800;2023-07-13T16:16:42;28.10;72.10
2663;DHT22;49701;48.072;7.800;2023-07-13T16:19:09;28.10;72.40
2663;DHT22;49701;48.072;7.800;2023-07-13T16:21:44;28.10;72.30
2663;DHT22;49701;48.072;7.800;2023-07-13T16:24:23;28.00;73.30
2663;DHT22;49701;48.072;7.800;2023-07-13T16:26:50;28.00;74.90
2663;DHT22;49701;48.072;7.800;2023-07-13T16:29:25;28.10;75.90
2663;DHT22;49701;48.072;7.800;2023-07-13T16:34:35;28.10;76.90
2663;DHT22;49701;48.072;7.800;2023-07-13T16:37:02;28.20;76.50